NGTA/TRW METAR and TAF weather

Enter ICAO airport designator
Station Type Date Time Source
NGTA METAR 2020/04/10 18:00 UTC NOAA

NGTA 101800Z 08006KT 9999 FEW019 28/25 Q1010


Station Type Date Time Source
NGTA Decoded METAR 2020/04/10 18:00 UTC NOAA

Tarawa, Kiribati (NGTA) 01-21N 172-55E 4M
Apr 10, 2020 - 02:00 PM EDT / 2020.04.10 1800 UTC
Wind: from the E (080 degrees) at 7 MPH (6 KT):0
Visibility: greater than 7 mile(s):0
Sky conditions: mostly clear
Temperature: 82 F (28 C)
Dew Point: 77 F (25 C)
Relative Humidity: 83%
Pressure (altimeter): 29.83 in. Hg (1010 hPa)
ob: NGTA 101800Z 08006KT 9999 FEW019 28/25 Q1010
cycle: 18

Station Type Date Time Source
NGTA TAF 2020/04/10 18:12 UTC NOAA

TAF NGTA 101710Z 1018/1118 09005KT 9999 FEW019

Example: see airport list